Honolulu, HI (96815)

4:02 PM HST on February 25, 2017 (GMT -1000)
Allure Waikiki | | Change Station

Elev 0 ft 21.29 °N, 157.83 °W | Updated 5 seconds ago

Mostly Cloudy
Mostly Cloudy
73.5 °F
Feels Like 77 °F
N
6.0
Wind Variable Wind from East

Today
High -- | Low -- °F
--% Chance of Precip.
Yesterday
High -- | Low -- °F
Precip. -- in
Pressure 29.97 in
Visibility 10.0 miles
Clouds Few 2600 ft
Few 4700 ft
Scattered Clouds 8500 ft
Mostly Cloudy 20000 ft
Heat Index 77 °F
Dew Point 56 °F
Humidity 55%
Rainfall 0.05 in
Snow Depth Not available.
6:54 AM 6:34 PM
Waning Crescent, 0% visible
METAR PHNL 260153Z 03009KT 10SM FEW026 FEW047 SCT085 BKN200 24/14 A2997 RMK AO2 SLP147 T02440144 $
Pressure 29.97 in
Visibility 10.0 miles
Clouds Few 2600 ft
Few 4700 ft
Scattered Clouds 8500 ft
Mostly Cloudy 20000 ft
Heat Index 77 °F
Dew Point 56 °F
Humidity 55%
Rainfall 0.05 in
Snow Depth Not available.
6:54 AM 6:34 PM
Waning Crescent, 0% visible
METAR PHNL 260153Z 03009KT 10SM FEW026 FEW047 SCT085 BKN200 24/14 A2997 RMK AO2 SLP147 T02440144 $

Get Your Daily Forecast Email!

Thanks for signing up!

Be on the lookout for a verification email in your inbox.

You'll start receiving the daily forecast at 8 AM.

×

10-Day Weather Forecast

Almanac

Astronomy

Feb. 25, 2017 Rise Set
Actual Time
Civil Twilight
Nautical Twilight
Astronomical Twilight
Moon
Length of Visible Light
Length of Day
Tomorrow will be .
, % of the Moon is Illuminated

Today's Extremes

State Highs State Lows

Community

WunderPhotos

Upload Photos

1,962,540 photos uploaded!

WunderBlog® & News

Nearby

Air Quality

  Air Quality AQ Index Pollutant
Not available.

Snow Depth

Station Depth Elevation

Earthquake Activity

City Distance Mag. Time & Date
Minimum magnitude displayed is 2.5.

Coastal Water Temperatures

Place Temperature

Stations

Nearby Weather Stations

Station Location Temp. Windchill Dew Point Humidity Wind Precip. Elev Updated Type
                   

Watches & Warnings

There are currently no watches in effect.